Time;durP1;ratioP1;P1;durP2;ratioP2;P2;SDS_P1;SDS_P2;PMS_P1;PMS_P2;Temp;Humidity;BMP_temperature;BMP_pressure;BME280_temperature;BME280_humidity;BME280_pressure;Samples;Min_cycle;Max_cycle;Signal;HPM_P1;HPM_P2
2023/06/10 00:00:41;;;;;;;8.02;4.47;;;;;;;18.06;100.00;92743.41;5059198;28;20118;-81
2023/06/10 00:03:08;;;;;;;8.80;4.60;;;;;;;18.04;100.00;92745.44;5079345;28;20048;-81
2023/06/10 00:05:35;;;;;;;6.97;3.78;;;;;;;17.90;100.00;92730.44;5060948;28;20052;-81
2023/06/10 00:08:06;;;;;;;8.13;4.10;;;;;;;17.93;100.00;92736.16;5068551;28;20083;-79
2023/06/10 00:10:35;;;;;;;7.55;4.57;;;;;;;17.92;100.00;92745.00;5073946;28;20139;-80
2023/06/10 00:13:03;;;;;;;5.80;3.75;;;;;;;17.84;100.00;92744.50;5074860;28;20519;-80
2023/06/10 00:15:30;;;;;;;5.50;3.67;;;;;;;17.68;100.00;92745.59;5077860;28;20562;-80
2023/06/10 00:17:57;;;;;;;8.80;4.22;;;;;;;17.56;100.00;92738.09;5078020;28;20496;-81
2023/06/10 00:20:24;;;;;;;6.85;3.80;;;;;;;17.43;100.00;92724.63;5072318;28;20132;-81
2023/06/10 00:22:52;;;;;;;6.75;3.97;;;;;;;17.47;100.00;92732.69;5075245;28;20052;-81
2023/06/10 00:25:19;;;;;;;7.53;3.80;;;;;;;17.41;100.00;92734.50;5087024;28;20044;-81
2023/06/10 00:27:47;;;;;;;5.45;3.50;;;;;;;17.44;100.00;92733.97;5077844;28;20049;-81
2023/06/10 00:30:14;;;;;;;9.00;4.15;;;;;;;17.48;100.00;92742.81;5071847;28;20040;-81
2023/06/10 00:32:41;;;;;;;6.65;4.18;;;;;;;17.54;100.00;92732.41;5087294;28;20125;-81
2023/06/10 00:35:08;;;;;;;6.03;3.17;;;;;;;17.43;100.00;92721.25;5086854;28;20040;-81
2023/06/10 00:37:35;;;;;;;6.22;3.80;;;;;;;17.49;100.00;92735.78;5072016;28;20455;-81
2023/06/10 00:40:03;;;;;;;7.07;3.50;;;;;;;17.48;100.00;92732.41;5072990;28;20051;-81
2023/06/10 00:42:30;;;;;;;5.60;3.63;;;;;;;17.38;100.00;92726.47;5063313;28;20045;-81
2023/06/10 00:44:58;;;;;;;5.32;3.75;;;;;;;17.30;100.00;92713.00;5073459;28;20045;-82
2023/06/10 00:47:26;;;;;;;4.60;3.10;;;;;;;17.42;100.00;92740.47;5066937;28;20044;-81
2023/06/10 00:49:54;;;;;;;8.00;3.72;;;;;;;17.29;100.00;92724.41;5063468;28;20497;-81
2023/06/10 00:52:25;;;;;;;8.13;3.72;;;;;;;17.31;100.00;92721.56;5074240;28;20093;-80
2023/06/10 00:54:52;;;;;;;5.90;3.05;;;;;;;17.43;100.00;92737.63;5086814;28;20094;-81
2023/06/10 00:57:19;;;;;;;4.95;3.42;;;;;;;17.30;100.00;92722.56;5087148;28;20065;-81
2023/06/10 00:59:49;;;;;;;4.80;3.13;;;;;;;17.42;100.00;92751.66;5071388;28;20511;-81
2023/06/10 01:02:18;;;;;;;6.10;2.92;;;;;;;17.43;100.00;92749.81;5083210;28;20520;-81
2023/06/10 01:04:44;;;;;;;7.18;3.60;;;;;;;17.42;100.00;92745.66;5087032;28;20083;-81
2023/06/10 01:07:22;;;;;;;5.55;3.17;;;;;;;17.37;100.00;92746.47;5084386;28;20085;-81
2023/06/10 01:09:57;;;;;;;4.55;2.92;;;;;;;17.37;100.00;92746.47;5071751;28;20537;-80
2023/06/10 01:12:32;;;;;;;4.38;3.15;;;;;;;17.30;100.00;92745.94;5091409;28;20131;-80
2023/06/10 01:15:00;;;;;;;4.72;2.88;;;;;;;17.24;100.00;92747.78;5090663;28;20423;-80
2023/06/10 01:17:30;;;;;;;4.85;3.17;;;;;;;17.22;100.00;92758.41;5072512;28;20052;-81
2023/06/10 01:19:57;;;;;;;6.00;2.85;;;;;;;17.17;100.00;92755.81;5068571;28;20044;-81
2023/06/10 01:22:28;;;;;;;4.45;2.63;;;;;;;17.11;100.00;92759.47;5070159;28;20079;-82
2023/06/10 01:24:59;;;;;;;4.68;3.22;;;;;;;17.09;100.00;92762.31;5068409;28;20044;-81
2023/06/10 01:27:30;;;;;;;4.82;3.28;;;;;;;16.81;100.00;92714.34;5073442;28;20040;-81
2023/06/10 01:30:03;;;;;;;3.38;2.60;;;;;;;17.08;100.00;92762.59;5067258;28;20048;-81
2023/06/10 01:32:34;;;;;;;5.85;3.38;;;;;;;17.07;100.00;92751.44;5072220;28;20389;-82
2023/06/10 01:35:03;;;;;;;5.05;3.20;;;;;;;17.08;100.00;92758.19;5081547;28;20040;-81
2023/06/10 01:37:32;;;;;;;5.22;3.28;;;;;;;17.07;100.00;92756.63;5089953;28;20412;-81
2023/06/10 01:40:01;;;;;;;4.90;3.47;;;;;;;17.08;100.00;92750.41;5083882;28;20448;-81
2023/06/10 01:42:29;;;;;;;5.18;3.28;;;;;;;17.01;100.00;92749.06;5072814;28;20548;-81
2023/06/10 01:44:56;;;;;;;4.95;3.45;;;;;;;17.06;100.00;92754.28;5087026;28;20044;-81
2023/06/10 01:47:22;;;;;;;6.18;3.33;;;;;;;17.05;100.00;92750.94;5089421;28;20044;-81
2023/06/10 01:49:57;;;;;;;6.55;3.20;;;;;;;16.96;100.00;92740.25;5064445;28;20040;-81
2023/06/10 01:52:24;;;;;;;7.97;3.60;;;;;;;17.04;100.00;92749.34;5079485;28;20108;-81
2023/06/10 01:54:52;;;;;;;6.00;3.42;;;;;;;16.98;100.00;92741.81;5076405;28;20109;-81
2023/06/10 01:57:19;;;;;;;6.45;3.65;;;;;;;16.95;100.00;92738.69;5090266;28;20052;-81
2023/06/10 01:59:46;;;;;;;5.38;3.70;;;;;;;16.93;100.00;92733.00;5065569;28;20110;-80
2023/06/10 02:02:13;;;;;;;7.57;3.38;;;;;;;16.88;100.00;92734.81;5084755;28;20043;-80
2023/06/10 02:04:39;;;;;;;4.78;2.97;;;;;;;16.84;100.00;92734.53;5089901;28;20047;-81
2023/06/10 02:07:06;;;;;;;5.97;3.47;;;;;;;16.77;100.00;92732.25;5079964;28;20041;-80
2023/06/10 02:09:35;;;;;;;7.95;3.53;;;;;;;16.74;100.00;92724.97;5077146;28;20045;-80
2023/06/10 02:12:03;;;;;;;6.25;3.63;;;;;;;16.63;100.00;92724.19;5067040;28;20142;-78
2023/06/10 02:14:33;;;;;;;7.07;3.60;;;;;;;16.60;100.00;92727.28;5076683;28;20048;-81
2023/06/10 02:17:00;;;;;;;5.22;3.42;;;;;;;16.67;100.00;92734.81;5069913;28;20091;-80
2023/06/10 02:19:27;;;;;;;5.65;3.35;;;;;;;16.61;100.00;92738.47;5070287;28;21110;-80
2023/06/10 02:21:54;;;;;;;6.60;3.33;;;;;;;16.55;100.00;92741.03;5072237;28;20052;-80
2023/06/10 02:24:21;;;;;;;4.80;3.00;;;;;;;16.38;100.00;92720.53;5073099;28;20036;-80
2023/06/10 02:26:48;;;;;;;6.38;3.28;;;;;;;16.43;100.00;92736.09;5080654;28;20048;-79
2023/06/10 02:29:18;;;;;;;4.53;3.17;;;;;;;16.36;100.00;92720.03;5081473;28;20041;-81
2023/06/10 02:31:45;;;;;;;7.45;3.20;;;;;;;16.43;100.00;92728.31;5074405;28;20157;-81
2023/06/10 02:34:12;;;;;;;4.50;3.22;;;;;;;16.38;100.00;92727.53;5073435;28;20045;-80
2023/06/10 02:36:38;;;;;;;4.38;3.20;;;;;;;16.47;100.00;92725.97;5075332;28;20048;-80
2023/06/10 02:39:05;;;;;;;4.78;3.65;;;;;;;16.50;100.00;92733.25;5069295;28;20048;-80
2023/06/10 02:41:32;;;;;;;5.35;3.45;;;;;;;16.56;100.00;92728.84;5069324;28;20036;-80
2023/06/10 02:43:59;;;;;;;4.85;3.08;;;;;;;16.46;100.00;92716.66;5077254;28;20425;-80
2023/06/10 02:46:28;;;;;;;5.18;3.28;;;;;;;16.60;100.00;92722.09;5081765;28;20053;-81
2023/06/10 02:48:55;;;;;;;5.03;2.97;;;;;;;16.61;100.00;92721.06;5073348;28;20036;-80
2023/06/10 02:51:22;;;;;;;7.18;3.53;;;;;;;16.61;100.00;92715.13;5068864;28;20443;-81
2023/06/10 02:53:48;;;;;;;8.35;3.78;;;;;;;16.59;100.00;92714.59;5068207;28;20110;-81
2023/06/10 02:56:17;;;;;;;4.13;3.20;;;;;;;16.55;100.00;92712.53;5079780;28;20451;-80
2023/06/10 02:58:44;;;;;;;7.97;4.15;;;;;;;16.58;100.00;92716.41;5074552;28;20041;-81
2023/06/10 03:01:11;;;;;;;4.97;3.17;;;;;;;16.60;100.00;92721.31;5076343;28;20047;-81
2023/06/10 03:03:42;;;;;;;5.57;3.50;;;;;;;16.60;100.00;92709.16;5066977;28;20041;-81
2023/06/10 03:06:10;;;;;;;4.60;3.13;;;;;;;16.62;100.00;92716.66;5066994;28;20119;-81
2023/06/10 03:08:36;;;;;;;5.85;3.38;;;;;;;16.58;100.00;92711.22;5084735;28;20142;-82
2023/06/10 03:11:03;;;;;;;8.82;3.85;;;;;;;16.58;100.00;92706.03;5089077;28;20055;-81
2023/06/10 03:13:30;;;;;;;8.68;3.33;;;;;;;16.54;100.00;92695.38;5071548;28;20040;-86
2023/06/10 03:15:57;;;;;;;5.20;3.53;;;;;;;16.50;100.00;92719.50;5068711;28;20106;-83
2023/06/10 03:18:29;;;;;;;5.30;3.42;;;;;;;16.40;100.00;92718.44;5067883;28;20051;-84
2023/06/10 03:20:57;;;;;;;8.80;4.07;;;;;;;16.15;100.00;92727.75;5084743;28;20048;-84
2023/06/10 03:23:24;;;;;;;5.65;3.92;;;;;;;15.83;100.00;92735.66;5088888;28;20054;-85
2023/06/10 03:25:51;;;;;;;7.32;4.07;;;;;;;15.37;100.00;92721.50;5075466;28;20060;-83
2023/06/10 03:28:18;;;;;;;6.90;4.28;;;;;;;15.23;100.00;92731.50;5067377;28;20052;-84
2023/06/10 03:30:44;;;;;;;7.30;4.68;;;;;;;15.13;100.00;92731.44;5069771;28;20098;-83
2023/06/10 03:33:11;;;;;;;6.75;5.13;;;;;;;15.00;100.00;92723.06;5073674;28;20086;-84
2023/06/10 03:35:38;;;;;;;6.32;5.00;;;;;;;15.05;100.00;92714.59;5068613;28;20529;-83
2023/06/10 03:38:06;;;;;;;6.85;4.13;;;;;;;15.28;100.00;92723.00;5064858;28;20515;-83
2023/06/10 03:40:33;;;;;;;6.75;4.45;;;;;;;15.33;100.00;92707.50;5074380;28;20550;-83
2023/06/10 03:43:00;;;;;;;9.55;4.72;;;;;;;15.51;100.00;92703.72;5068673;28;20564;-83
2023/06/10 03:45:28;;;;;;;6.22;4.30;;;;;;;15.73;100.00;92705.31;5085216;28;20051;-83
2023/06/10 03:47:55;;;;;;;6.03;4.43;;;;;;;15.95;100.00;92712.16;5072458;28;20163;-83
2023/06/10 03:50:23;;;;;;;5.88;4.38;;;;;;;16.12;100.00;92722.31;5066824;28;20451;-83
2023/06/10 03:52:50;;;;;;;6.80;4.70;;;;;;;16.07;100.00;92696.38;5062051;28;20415;-82
2023/06/10 03:55:18;;;;;;;9.73;4.60;;;;;;;16.35;100.00;92715.88;5086496;28;20094;-82
2023/06/10 03:57:45;;;;;;;8.48;5.07;;;;;;;16.44;100.00;92718.72;5076103;28;20089;-82
2023/06/10 04:00:13;;;;;;;8.43;5.43;;;;;;;16.51;100.00;92711.47;5069869;28;20056;-80
2023/06/10 04:02:45;;;;;;;7.00;4.50;;;;;;;16.56;100.00;92708.88;5073035;28;20053;-80
2023/06/10 04:05:12;;;;;;;7.90;4.05;;;;;;;16.59;100.00;92712.78;5070763;28;20053;-80
2023/06/10 04:07:40;;;;;;;7.90;5.65;;;;;;;16.65;100.00;92721.31;5070289;28;20036;-80
2023/06/10 04:10:08;;;;;;;8.43;5.93;;;;;;;16.71;100.00;92717.69;5068066;28;20072;-80
2023/06/10 04:12:36;;;;;;;13.73;8.60;;;;;;;16.78;100.00;92718.22;5081929;28;20107;-80
2023/06/10 04:15:04;;;;;;;13.52;10.43;;;;;;;16.85;100.00;92719.78;5070349;28;20089;-83
2023/06/10 04:17:31;;;;;;;19.38;12.98;;;;;;;16.82;100.00;92715.88;5087786;28;20056;-83
2023/06/10 04:19:58;;;;;;;18.88;14.27;;;;;;;16.85;100.00;92704.97;5087818;28;20125;-80
2023/06/10 04:22:25;;;;;;;19.40;12.00;;;;;;;16.75;100.00;92695.38;5071122;28;20501;-80
2023/06/10 04:24:51;;;;;;;14.55;11.05;;;;;;;16.89;100.00;92713.03;5077810;28;20044;-79
2023/06/10 04:27:18;;;;;;;15.57;9.77;;;;;;;16.98;100.00;92716.63;5088246;28;20435;-81
2023/06/10 04:29:46;;;;;;;11.27;7.45;;;;;;;17.00;100.00;92712.00;5087775;28;20040;-79
2023/06/10 04:32:13;;;;;;;8.98;7.20;;;;;;;17.03;100.00;92713.31;5067358;28;20036;-80
2023/06/10 04:34:40;;;;;;;7.15;4.80;;;;;;;17.00;100.00;92714.56;5067582;28;20497;-79
2023/06/10 04:37:06;;;;;;;8.70;6.05;;;;;;;17.07;100.00;92724.69;5078075;28;20048;-79
2023/06/10 04:39:33;;;;;;;10.85;7.03;;;;;;;17.11;100.00;92719.78;5068006;28;20560;-78
2023/06/10 04:42:00;;;;;;;8.60;5.72;;;;;;;17.06;100.00;92708.38;5085897;28;20537;-81
2023/06/10 04:44:27;;;;;;;10.48;5.55;;;;;;;17.19;100.00;92729.63;5069521;28;20131;-80
2023/06/10 04:46:55;;;;;;;7.38;5.07;;;;;;;17.27;100.00;92730.91;5081528;28;20044;-80
2023/06/10 04:49:22;;;;;;;6.10;4.32;;;;;;;17.30;100.00;92732.97;5087787;28;20158;-80
2023/06/10 04:51:51;;;;;;;7.88;4.63;;;;;;;17.29;100.00;92719.22;5079296;28;20125;-78
2023/06/10 04:54:17;;;;;;;9.70;3.92;;;;;;;17.40;100.00;92716.59;5077543;28;20175;-79
2023/06/10 04:56:45;;;;;;;8.73;5.13;;;;;;;17.44;100.00;92723.59;5087489;28;20048;-79
2023/06/10 04:59:11;;;;;;;7.47;4.10;;;;;;;17.47;100.00;92725.69;5087151;28;20075;-79
2023/06/10 05:01:38;;;;;;;6.10;4.50;;;;;;;17.50;100.00;92726.97;5064649;28;20085;-80
2023/06/10 05:04:06;;;;;;;5.68;3.88;;;;;;;17.53;100.00;92721.22;5067379;28;20059;-79
2023/06/10 05:06:33;;;;;;;6.88;4.50;;;;;;;17.58;100.00;92730.81;5084117;28;20036;-80
2023/06/10 05:09:00;;;;;;;15.70;4.85;;;;;;;17.60;100.00;92729.50;5077158;28;20048;-79
2023/06/10 05:11:26;;;;;;;5.55;4.22;;;;;;;17.65;100.00;92725.34;5076490;28;20047;-79
2023/06/10 05:13:53;;;;;;;8.30;4.32;;;;;;;17.68;100.00;92730.78;5070660;28;20095;-79
2023/06/10 05:16:20;;;;;;;8.27;4.85;;;;;;;17.71;100.00;92734.66;5074708;28;20040;-79
2023/06/10 05:18:46;;;;;;;6.93;4.25;;;;;;;17.73;100.00;92730.00;5078936;28;20095;-80
2023/06/10 05:21:15;;;;;;;7.72;4.20;;;;;;;17.75;100.00;92730.50;5063429;28;20451;-79
2023/06/10 05:23:42;;;;;;;6.65;3.92;;;;;;;17.80;100.00;92733.09;5077648;28;20138;-83
2023/06/10 05:26:09;;;;;;;7.30;4.20;;;;;;;17.86;100.00;92739.03;5079512;28;20052;-81
2023/06/10 05:28:35;;;;;;;6.47;4.57;;;;;;;17.86;100.00;92734.63;5077507;28;20048;-81
2023/06/10 05:31:02;;;;;;;5.55;4.05;;;;;;;17.94;100.00;92743.69;5069172;28;20089;-81
2023/06/10 05:33:29;;;;;;;6.55;4.22;;;;;;;18.00;100.00;92741.81;5078871;28;20058;-80
2023/06/10 05:35:56;;;;;;;6.70;4.50;;;;;;;18.06;100.00;92738.22;5064301;28;20040;-81
2023/06/10 05:38:24;;;;;;;6.60;4.60;;;;;;;18.14;100.00;92740.22;5078794;28;20389;-80
2023/06/10 05:40:51;;;;;;;7.38;4.90;;;;;;;18.19;100.00;92738.66;5086792;28;20105;-80
2023/06/10 05:43:17;;;;;;;8.13;4.38;;;;;;;18.18;100.00;92734.50;5071379;28;20102;-80
2023/06/10 05:45:44;;;;;;;7.07;4.95;;;;;;;18.28;100.00;92743.00;5085524;28;20069;-81
2023/06/10 05:48:11;;;;;;;7.20;4.70;;;;;;;17.99;100.00;92732.47;5083528;28;20515;-80
2023/06/10 05:50:39;;;;;;;6.63;4.20;;;;;;;17.74;100.00;92749.75;5062763;28;20090;-80
2023/06/10 05:53:08;;;;;;;8.80;5.72;;;;;;;17.66;100.00;92739.88;5061949;28;20082;-80
2023/06/10 05:55:36;;;;;;;7.28;4.65;;;;;;;17.67;100.00;92739.63;5066640;28;20133;-80
2023/06/10 05:58:13;;;;;;;11.18;5.38;;;;;;;17.60;100.00;92710.56;5089951;28;20048;-80
2023/06/10 06:00:40;;;;;;;10.57;5.95;;;;;;;17.57;100.00;92747.44;5066717;28;20094;-80
2023/06/10 06:03:07;;;;;;;9.93;5.40;;;;;;;17.51;100.00;92736.31;5082021;28;20419;-81
2023/06/10 06:05:35;;;;;;;9.45;4.75;;;;;;;17.76;100.00;92750.25;5070578;28;20138;-80
2023/06/10 06:08:02;;;;;;;9.90;5.38;;;;;;;17.89;100.00;92739.28;5085856;28;20087;-80
2023/06/10 06:10:29;;;;;;;9.95;5.30;;;;;;;18.16;100.00;92748.53;5090234;28;20044;-80
2023/06/10 06:12:57;;;;;;;8.18;4.43;;;;;;;18.37;100.00;92745.06;5082542;28;20071;-80
2023/06/10 06:15:24;;;;;;;10.65;5.65;;;;;;;18.54;100.00;92748.06;5080163;28;20560;-80
2023/06/10 06:17:52;;;;;;;10.85;4.97;;;;;;;18.74;100.00;92750.81;5072319;28;20051;-80
2023/06/10 06:20:19;;;;;;;7.50;4.90;;;;;;;18.90;100.00;92748.84;5083404;28;20079;-80
2023/06/10 06:22:46;;;;;;;12.00;5.28;;;;;;;19.02;100.00;92748.50;5071315;28;20096;-80
2023/06/10 06:25:12;;;;;;;9.85;5.15;;;;;;;19.12;100.00;92745.81;5075683;28;20052;-80
2023/06/10 06:27:39;;;;;;;8.38;4.45;;;;;;;19.28;100.00;92749.06;5089806;28;20085;-80
2023/06/10 06:30:09;;;;;;;7.72;4.15;;;;;;;19.33;100.00;92743.03;5074255;28;20087;-80
2023/06/10 06:32:35;;;;;;;6.80;3.75;;;;;;;19.47;100.00;92754.34;5067120;28;20044;-80
2023/06/10 06:35:02;;;;;;;5.82;4.10;;;;;;;19.56;100.00;92754.53;5080659;28;20044;-80
2023/06/10 06:37:29;;;;;;;7.13;3.70;;;;;;;19.64;100.00;92758.34;5076937;28;20488;-79
2023/06/10 06:39:56;;;;;;;6.88;4.78;;;;;;;19.66;100.00;92751.03;5079555;28;20055;-79
2023/06/10 06:42:22;;;;;;;6.30;3.95;;;;;;;19.74;100.00;92750.44;5070626;28;20044;-80
2023/06/10 06:44:49;;;;;;;5.18;3.47;;;;;;;19.87;100.00;92754.16;5079455;28;20093;-80
2023/06/10 06:47:19;;;;;;;8.18;3.47;;;;;;;19.80;100.00;92732.13;5064966;28;20040;-79
2023/06/10 06:49:46;;;;;;;7.35;3.70;;;;;;;19.98;100.00;92747.03;5063732;28;20168;-80
2023/06/10 06:52:13;;;;;;;11.60;5.13;;;;;;;19.94;100.00;92753.06;5080094;28;20454;-79
2023/06/10 06:54:40;;;;;;;7.13;4.80;;;;;;;19.97;100.00;92742.09;5084636;28;20174;-79
2023/06/10 06:57:07;;;;;;;13.00;4.93;;;;;;;20.13;100.00;92750.50;5064495;28;20090;-79
2023/06/10 06:59:34;;;;;;;14.02;5.43;;;;;;;20.23;100.00;92754.81;5081578;28;20492;-79
2023/06/10 07:02:00;;;;;;;16.20;6.78;;;;;;;20.29;100.00;92746.63;5083837;28;20044;-79
2023/06/10 07:04:29;;;;;;;19.33;7.07;;;;;;;20.29;100.00;92745.88;5071046;28;20086;-79
2023/06/10 07:06:55;;;;;;;16.77;7.03;;;;;;;19.97;100.00;92714.22;5087688;28;20489;-87
2023/06/10 07:09:22;;;;;;;15.57;6.13;;;;;;;20.26;100.00;92742.00;5088982;28;20048;-86
2023/06/10 07:11:49;;;;;;;15.93;7.00;;;;;;;20.26;100.00;92734.19;5072725;28;20048;-80
2023/06/10 07:14:16;;;;;;;14.20;6.40;;;;;;;20.27;100.00;92735.72;5075737;28;20045;-79
2023/06/10 07:16:45;;;;;;;18.10;6.03;;;;;;;20.30;100.00;92734.38;5079220;28;20550;-79
2023/06/10 07:19:11;;;;;;;16.70;6.22;;;;;;;20.48;100.00;92727.63;5088706;28;20135;-79
2023/06/10 07:21:39;;;;;;;14.57;6.72;;;;;;;20.64;100.00;92725.53;5078135;28;20041;-81
2023/06/10 07:24:07;;;;;;;11.23;5.78;;;;;;;20.68;100.00;92702.25;5069043;28;20048;-81
2023/06/10 07:26:33;;;;;;;14.50;6.43;;;;;;;21.03;100.00;92715.84;5077160;28;20056;-81
2023/06/10 07:29:00;;;;;;;10.57;4.57;;;;;;;21.12;100.00;92730.84;5082805;28;20097;-80
2023/06/10 07:31:27;;;;;;;14.27;6.13;;;;;;;21.31;100.00;92733.38;5088180;28;20094;-80
2023/06/10 07:33:54;;;;;;;9.63;4.75;;;;;;;21.18;100.00;92733.09;5080888;28;20466;-80
2023/06/10 07:36:20;;;;;;;13.77;4.78;;;;;;;21.42;100.00;92728.78;5078354;28;20093;-81
2023/06/10 07:38:49;;;;;;;9.43;4.22;;;;;;;21.26;100.00;92736.09;5071322;28;20463;-80
2023/06/10 07:41:17;;;;;;;6.35;4.00;;;;;;;21.51;100.00;92723.66;5082135;28;20496;-81
2023/06/10 07:43:44;;;;;;;8.38;4.75;;;;;;;21.81;100.00;92734.59;5088879;28;20048;-81
2023/06/10 07:46:11;;;;;;;6.88;3.90;;;;;;;21.66;100.00;92733.03;5086987;28;20051;-82
2023/06/10 07:48:38;;;;;;;9.35;4.40;;;;;;;21.44;100.00;92731.84;5069634;28;20436;-81
2023/06/10 07:51:04;;;;;;;6.40;3.42;;;;;;;21.66;100.00;92731.19;5088424;28;20044;-80
2023/06/10 07:53:31;;;;;;;7.13;3.60;;;;;;;21.86;100.00;92727.41;5088444;28;20040;-80
2023/06/10 07:55:59;;;;;;;8.85;4.47;;;;;;;21.94;100.00;92722.59;5087705;28;20044;-81
2023/06/10 07:58:26;;;;;;;9.48;3.35;;;;;;;21.68;100.00;92726.44;5058683;28;20110;-81
2023/06/10 08:00:52;;;;;;;4.88;3.22;;;;;;;21.54;100.00;92729.06;5078617;28;20048;-80
2023/06/10 08:03:19;;;;;;;7.97;3.55;;;;;;;21.88;100.00;92725.31;5068915;28;20049;-80
2023/06/10 08:05:46;;;;;;;8.18;3.97;;;;;;;22.29;100.00;92726.31;5087663;28;20518;-80
2023/06/10 08:08:13;;;;;;;4.80;3.38;;;;;;;22.85;100.00;92714.88;5088305;28;20040;-80
2023/06/10 08:10:40;;;;;;;7.68;3.17;;;;;;;23.33;100.00;92704.84;5073289;28;20053;-80
2023/06/10 08:13:09;;;;;;;8.50;4.10;;;;;;;23.74;100.00;92721.28;5070612;28;20049;-81
2023/06/10 08:15:35;;;;;;;7.53;3.55;;;;;;;23.55;96.70;92724.19;5088104;28;20052;-80
2023/06/10 08:18:02;;;;;;;6.63;3.03;;;;;;;23.18;94.31;92722.44;5076692;28;20049;-80
2023/06/10 08:20:29;;;;;;;5.50;2.90;;;;;;;23.03;95.80;92713.13;5074165;28;20131;-81
2023/06/10 08:22:56;;;;;;;3.30;2.17;;;;;;;23.32;90.71;92721.59;5087401;28;20093;-81
2023/06/10 08:25:23;;;;;;;5.80;2.50;;;;;;;23.70;88.00;92720.38;5073040;28;20493;-79
2023/06/10 08:27:50;;;;;;;5.07;2.40;;;;;;;24.21;95.29;92710.31;5073128;28;20044;-80
2023/06/10 08:30:19;;;;;;;4.13;2.67;;;;;;;24.46;88.81;92717.72;5084257;28;20405;-80
2023/06/10 08:32:45;;;;;;;7.72;3.00;;;;;;;24.47;88.47;92721.91;5065942;28;20061;-80
2023/06/10 08:35:12;;;;;;;6.55;2.75;;;;;;;24.89;90.46;92714.34;5088463;28;20044;-81
2023/06/10 08:37:39;;;;;;;5.63;2.33;;;;;;;25.28;84.27;92716.25;5087926;28;20056;-81
2023/06/10 08:40:07;;;;;;;4.03;2.50;;;;;;;25.47;80.88;92702.75;5070887;28;20567;-81
2023/06/10 08:42:40;;;;;;;4.00;1.52;;;;;;;25.08;78.39;92708.75;5084400;28;20040;-81
2023/06/10 08:45:11;;;;;;;3.80;2.35;;;;;;;25.46;81.54;92701.22;5069230;28;20497;-81
2023/06/10 08:47:42;;;;;;;5.68;3.00;;;;;;;24.75;86.41;92685.59;5078028;28;20556;-80
2023/06/10 08:50:10;;;;;;;4.85;2.15;;;;;;;25.14;86.60;92695.44;5073962;28;20089;-80
2023/06/10 08:52:38;;;;;;;3.53;2.33;;;;;;;25.37;80.83;92692.56;5088108;28;20048;-80
2023/06/10 08:55:12;;;;;;;3.95;2.22;;;;;;;25.69;78.79;92682.56;5057811;28;20429;-81
2023/06/10 08:57:39;;;;;;;3.10;1.70;;;;;;;25.82;75.74;92693.94;5078126;28;20637;-81
2023/06/10 09:00:07;;;;;;;3.95;1.55;;;;;;;25.39;75.03;92693.81;5088001;28;20588;-79
2023/06/10 09:02:35;;;;;;;3.42;1.55;;;;;;;24.29;74.11;92680.69;5069484;28;20055;-80
2023/06/10 09:05:04;;;;;;;2.30;1.20;;;;;;;24.10;77.25;92695.94;5071955;28;20040;-80
2023/06/10 09:07:34;;;;;;;2.25;1.35;;;;;;;23.95;77.26;92697.91;5087919;28;20051;-80
2023/06/10 09:10:03;;;;;;;2.97;1.48;;;;;;;24.23;76.47;92687.19;5075836;28;20498;-81
2023/06/10 09:12:30;;;;;;;1.95;1.10;;;;;;;24.91;75.99;92680.63;5061272;28;20055;-81
2023/06/10 09:14:57;;;;;;;1.60;0.88;;;;;;;24.96;68.57;92695.47;5065140;28;20048;-81
2023/06/10 09:17:24;;;;;;;2.67;1.05;;;;;;;24.69;74.22;92677.13;5060405;28;20646;-80
2023/06/10 09:19:55;;;;;;;2.28;1.02;;;;;;;24.63;71.34;92691.47;5051568;28;20126;-79
2023/06/10 09:22:23;;;;;;;1.77;0.98;;;;;;;24.96;77.85;92687.59;5064808;28;20103;-81
2023/06/10 09:24:50;;;;;;;2.53;1.38;;;;;;;25.20;71.96;92678.41;5063581;28;20051;-81
2023/06/10 09:27:16;;;;;;;2.50;1.30;;;;;;;23.84;72.40;92684.31;5072152;28;20051;-80
2023/06/10 09:29:48;;;;;;;2.30;1.23;;;;;;;23.22;77.61;92675.47;5063969;28;20061;-80
2023/06/10 09:32:14;;;;;;;1.38;0.70;;;;;;;23.09;73.14;92672.63;5086665;28;20040;-81
2023/06/10 09:34:41;;;;;;;2.45;1.10;;;;;;;23.10;75.70;92668.19;5072381;28;20105;-80
2023/06/10 09:37:11;;;;;;;1.83;1.27;;;;;;;23.58;75.71;92676.38;5083818;28;20144;-80
2023/06/10 09:39:40;;;;;;;1.92;1.27;;;;;;;23.92;75.51;92667.03;5092285;28;20149;-81
2023/06/10 09:42:17;;;;;;;1.98;0.95;;;;;;;23.95;72.98;92671.69;5091208;28;20051;-81
2023/06/10 09:44:50;;;;;;;3.08;1.55;;;;;;;23.63;77.17;92663.13;5073519;28;20048;-80
2023/06/10 09:47:21;;;;;;;2.55;1.13;;;;;;;23.67;75.62;92665.91;5089623;28;20044;-80
2023/06/10 09:49:47;;;;;;;2.45;1.10;;;;;;;23.86;78.07;92655.16;5091483;28;20105;-79
2023/06/10 09:52:14;;;;;;;2.50;1.10;;;;;;;24.07;75.26;92659.81;5087494;28;20652;-78
2023/06/10 09:54:45;;;;;;;1.83;1.17;;;;;;;24.06;72.68;92669.53;5074930;28;20149;-80
2023/06/10 09:57:12;;;;;;;1.92;1.13;;;;;;;24.13;76.74;92658.59;5090616;28;20040;-79
2023/06/10 09:59:39;;;;;;;2.10;0.98;;;;;;;24.21;73.49;92651.81;5073429;28;20081;-80
2023/06/10 10:02:06;;;;;;;3.47;1.20;;;;;;;24.44;79.25;92651.66;5080486;28;20522;-79
2023/06/10 10:04:35;;;;;;;2.95;1.38;;;;;;;23.75;73.43;92659.94;5076481;28;20049;-79
2023/06/10 10:07:02;;;;;;;6.25;1.48;;;;;;;23.96;74.49;92656.69;5070224;28;20048;-78
2023/06/10 10:09:29;;;;;;;1.80;1.27;;;;;;;23.54;74.37;92662.34;5079583;28;20114;-78
2023/06/10 10:11:58;;;;;;;1.90;1.15;;;;;;;23.19;74.11;92648.00;5076585;28;20101;-79
2023/06/10 10:14:26;;;;;;;3.15;1.20;;;;;;;23.32;74.84;92643.00;5090519;28;20055;-80
2023/06/10 10:16:54;;;;;;;2.38;1.40;;;;;;;23.55;74.48;92648.94;5089997;28;20058;-79
2023/06/10 10:19:29;;;;;;;2.25;1.30;;;;;;;23.83;75.09;92635.56;5069946;28;20049;-79
2023/06/10 10:22:00;;;;;;;;;;;;;;;23.74;72.88;92646.03;5070625;28;20044;-79
2023/06/10 10:24:33;;;;;;;3.75;1.55;;;;;;;23.22;76.26;92633.53;5090195;28;19973;-79
2023/06/10 10:27:06;;;;;;;17.08;6.30;;;;;;;23.38;78.63;92641.81;5080566;28;20044;-79
2023/06/10 10:29:40;;;;;;;5.90;2.28;;;;;;;23.24;75.04;92634.03;5077437;28;20043;-78
2023/06/10 10:32:09;;;;;;;3.80;2.13;;;;;;;23.39;76.57;92643.34;5085672;28;20421;-79
2023/06/10 10:34:47;;;;;;;1.98;1.17;;;;;;;23.54;75.50;92646.59;5078690;28;20036;-78
2023/06/10 10:37:14;;;;;;;2.25;1.30;;;;;;;23.29;76.84;92623.38;5087941;28;20423;-79
2023/06/10 10:39:41;;;;;;;3.17;1.52;;;;;;;23.31;75.70;92633.56;5080627;28;20089;-77
2023/06/10 10:42:10;;;;;;;2.65;1.33;;;;;;;23.31;72.76;92631.75;5067544;28;20130;-77
2023/06/10 10:44:38;;;;;;;1.40;0.80;;;;;;;23.48;71.65;92625.78;5076542;28;20090;-78
2023/06/10 10:47:09;;;;;;;1.75;0.88;;;;;;;23.09;72.01;92601.91;5067590;28;20480;-77
2023/06/10 10:49:36;;;;;;;2.67;1.42;;;;;;;23.44;72.05;92618.84;5079159;28;20087;-77
2023/06/10 10:52:05;;;;;;;3.72;1.48;;;;;;;23.70;71.27;92623.38;5083935;28;20044;-77
2023/06/10 10:54:34;;;;;;;2.65;1.40;;;;;;;24.00;71.14;92619.06;5056499;28;20094;-78
2023/06/10 10:57:16;;;;;;;3.00;1.48;;;;;;;23.98;71.65;92623.84;5083810;28;20063;-78
2023/06/10 10:59:57;;;;;;;2.53;1.38;;;;;;;24.11;70.75;92580.19;5077516;28;20048;-78
2023/06/10 11:02:43;;;;;;;2.50;1.50;;;;;;;23.99;66.79;92630.66;5066371;28;20055;-77
2023/06/10 11:05:10;;;;;;;2.95;1.75;;;;;;;24.07;68.88;92626.47;5063463;28;20051;-77
2023/06/10 11:07:38;;;;;;;3.63;1.70;;;;;;;23.75;70.07;92621.34;5063495;28;20049;-77
2023/06/10 11:10:08;;;;;;;2.60;1.40;;;;;;;23.62;73.51;92615.16;5077523;28;20263;-78
2023/06/10 11:12:51;;;;;;;3.10;1.75;;;;;;;23.46;71.86;92614.06;5077796;28;20055;-77
2023/06/10 11:15:20;;;;;;;2.15;1.50;;;;;;;23.41;71.44;92603.75;5087768;28;20052;-77
2023/06/10 11:18:16;;;;;;;2.75;1.50;;;;;;;23.59;69.48;92609.75;5059358;28;20549;-77
2023/06/10 11:20:52;;;;;;;2.22;1.40;;;;;;;24.02;70.27;92603.78;5068846;28;20052;-77
2023/06/10 11:23:44;;;;;;;1.83;1.17;;;;;;;24.26;70.87;92594.69;5077431;28;20052;-78
2023/06/10 11:26:20;;;;;;;2.80;1.52;;;;;;;24.53;67.93;92599.91;5088123;28;20052;-79
2023/06/10 11:29:11;;;;;;;4.47;2.38;;;;;;;24.42;63.54;92596.84;5081233;28;20041;-79
2023/06/10 11:31:44;;;;;;;2.38;1.13;;;;;;;24.75;64.97;92587.63;5059059;28;20101;-78